createdAt,value
2017-10-23T00:01:12.376Z,2.47
2017-10-23T00:03:38.783Z,2.70
2017-10-23T00:06:05.251Z,1.93
2017-10-23T00:08:31.664Z,2.63
2017-10-23T00:10:58.060Z,3.07
2017-10-23T00:13:25.212Z,3.67
2017-10-23T00:15:52.408Z,3.20
2017-10-23T00:18:18.935Z,2.60
2017-10-23T00:20:45.320Z,2.67
2017-10-23T00:23:11.858Z,3.00
2017-10-23T00:25:39.091Z,2.53
2017-10-23T00:28:05.501Z,2.40
2017-10-23T00:30:31.907Z,2.70
2017-10-23T00:32:58.316Z,2.90
2017-10-23T00:35:27.492Z,2.83
2017-10-23T00:37:53.928Z,2.03
2017-10-23T00:40:20.343Z,2.20
2017-10-23T00:42:46.758Z,2.20
2017-10-23T00:45:13.236Z,2.67
2017-10-23T00:47:39.671Z,2.53
2017-10-23T00:50:06.101Z,2.70
2017-10-23T00:52:32.467Z,2.17
2017-10-23T00:54:58.956Z,2.60
2017-10-23T00:57:25.515Z,3.10
2017-10-23T00:59:52.758Z,3.00
2017-10-23T01:02:19.244Z,2.53
2017-10-23T01:04:45.656Z,2.63
2017-10-23T01:07:12.133Z,2.40
2017-10-23T01:09:38.606Z,2.60
2017-10-23T01:12:05.751Z,2.37
2017-10-23T01:14:33.050Z,2.53
2017-10-23T01:16:59.523Z,2.90
2017-10-23T01:19:26.736Z,3.17
2017-10-23T01:21:53.260Z,2.43
2017-10-23T01:24:19.725Z,2.30
2017-10-23T01:26:46.179Z,2.30
2017-10-23T01:29:12.628Z,2.40
2017-10-23T01:31:39.143Z,2.87
2017-10-23T01:34:05.592Z,2.40
2017-10-23T01:36:32.804Z,2.53
2017-10-23T01:38:59.360Z,2.83
2017-10-23T01:41:25.785Z,2.43
2017-10-23T01:43:52.956Z,2.90
2017-10-23T01:46:19.546Z,3.00
2017-10-23T01:48:45.985Z,2.80
2017-10-23T01:51:12.423Z,2.60
2017-10-23T01:53:38.952Z,2.37
2017-10-23T01:56:05.824Z,3.20
2017-10-23T01:58:32.291Z,3.20
2017-10-23T02:00:59.480Z,2.80
2017-10-23T02:03:26.036Z,3.30
2017-10-23T02:05:52.471Z,2.60
2017-10-23T02:08:18.872Z,2.60
2017-10-23T02:10:45.293Z,3.10
2017-10-23T02:13:11.704Z,2.60
2017-10-23T02:15:38.916Z,2.20
2017-10-23T02:18:05.366Z,2.53
2017-10-23T02:20:31.897Z,2.47
2017-10-23T02:22:58.287Z,2.33
2017-10-23T02:25:24.723Z,2.27
2017-10-23T02:27:51.136Z,2.30
2017-10-23T02:30:17.522Z,2.40
2017-10-23T02:32:43.935Z,2.63
2017-10-23T02:35:10.356Z,3.20
2017-10-23T02:37:36.777Z,2.70
2017-10-23T02:40:03.172Z,2.93
2017-10-23T02:42:29.547Z,3.80
2017-10-23T02:44:55.959Z,2.97
2017-10-23T02:47:22.423Z,4.10
2017-10-23T02:49:48.820Z,3.77
2017-10-23T02:52:15.975Z,3.43
2017-10-23T02:54:42.402Z,2.40
2017-10-23T02:57:08.896Z,2.47
2017-10-23T02:59:35.332Z,2.93
2017-10-23T03:02:01.749Z,1.90
2017-10-23T03:04:28.226Z,2.73
2017-10-23T03:06:55.467Z,2.43
2017-10-23T03:09:21.895Z,2.13
2017-10-23T03:11:48.359Z,2.07
2017-10-23T03:14:14.860Z,2.47
2017-10-23T03:16:41.508Z,2.37
2017-10-23T03:19:08.738Z,2.90
2017-10-23T03:21:35.163Z,2.47
2017-10-23T03:24:01.644Z,2.80
2017-10-23T03:26:28.884Z,2.90
2017-10-23T03:28:56.127Z,2.43
2017-10-23T03:31:22.567Z,2.90
2017-10-23T03:33:49.794Z,2.40
2017-10-23T03:36:16.264Z,2.00
2017-10-23T03:38:43.449Z,2.93
2017-10-23T03:41:09.916Z,2.20
2017-10-23T03:43:36.345Z,2.20
2017-10-23T03:46:02.872Z,2.90
2017-10-23T03:48:29.333Z,2.20
2017-10-23T03:50:55.792Z,3.23
2017-10-23T03:53:22.986Z,2.43
2017-10-23T03:55:49.511Z,2.50
2017-10-23T03:58:15.927Z,3.13
2017-10-23T04:00:42.386Z,2.77
2017-10-23T04:03:08.867Z,2.23
2017-10-23T04:05:36.159Z,2.53
2017-10-23T04:08:02.620Z,2.07
2017-10-23T04:10:29.110Z,3.23
2017-10-23T04:12:55.604Z,2.23
2017-10-23T04:15:22.165Z,2.47
2017-10-23T04:17:49.404Z,2.97
2017-10-23T04:20:16.124Z,2.47
2017-10-23T04:22:43.399Z,3.10
2017-10-23T04:25:10.021Z,2.47
2017-10-23T04:27:37.342Z,3.00
2017-10-23T04:30:03.788Z,2.80
2017-10-23T04:32:30.211Z,2.60
2017-10-23T04:34:56.657Z,6.47
2017-10-23T04:37:23.107Z,5.73
2017-10-23T04:39:49.701Z,6.43
2017-10-23T04:42:16.145Z,6.10
2017-10-23T04:44:42.597Z,7.07
2017-10-23T04:47:11.103Z,6.33
2017-10-23T04:49:37.593Z,5.60
2017-10-23T04:52:04.082Z,5.27
2017-10-23T04:54:31.295Z,4.80
2017-10-23T04:56:57.744Z,4.97
2017-10-23T04:59:24.198Z,4.40
2017-10-23T05:01:51.608Z,4.70
2017-10-23T05:04:18.079Z,3.70
2017-10-23T05:06:44.639Z,3.27
2017-10-23T05:09:11.791Z,3.57
2017-10-23T05:11:38.231Z,4.80
2017-10-23T05:14:04.691Z,3.50
2017-10-23T05:16:31.179Z,3.00
2017-10-23T05:18:58.419Z,2.90
2017-10-23T05:21:24.850Z,3.20
2017-10-23T05:23:51.305Z,3.23
2017-10-23T05:26:18.484Z,3.27
2017-10-23T05:28:44.930Z,2.40
2017-10-23T05:31:11.395Z,2.73
2017-10-23T05:33:37.864Z,2.80
2017-10-23T05:36:04.322Z,3.30
2017-10-23T05:38:30.764Z,4.23
2017-10-23T05:40:57.210Z,6.20
2017-10-23T05:43:23.655Z,4.73
2017-10-23T05:45:50.116Z,4.17
2017-10-23T05:48:17.273Z,4.70
2017-10-23T05:50:44.498Z,4.43
2017-10-23T05:53:10.968Z,4.03
2017-10-23T05:55:37.463Z,3.70
2017-10-23T05:58:03.905Z,5.13
2017-10-23T06:00:30.384Z,5.53
2017-10-23T06:02:56.816Z,3.93
2017-10-23T06:05:23.288Z,4.80
2017-10-23T06:07:49.752Z,4.57
2017-10-23T06:10:16.958Z,4.30
2017-10-23T06:12:43.411Z,19.17
2017-10-23T06:15:09.904Z,10.37
2017-10-23T06:17:36.400Z,18.93
2017-10-23T06:20:03.624Z,6.30
2017-10-23T06:22:30.092Z,6.60
2017-10-23T06:24:57.284Z,6.13
2017-10-23T06:27:23.800Z,6.50
2017-10-23T06:29:50.276Z,5.83
2017-10-23T06:32:16.748Z,6.73
2017-10-23T06:34:43.941Z,5.73
2017-10-23T06:37:10.372Z,5.73
2017-10-23T06:39:36.872Z,6.17
2017-10-23T06:42:04.083Z,7.20
2017-10-23T06:44:30.516Z,5.30
2017-10-23T06:46:57.016Z,6.33
2017-10-23T06:49:23.515Z,5.07
2017-10-23T06:51:50.696Z,5.30
2017-10-23T06:54:17.888Z,4.10
2017-10-23T06:56:44.387Z,4.87
2017-10-23T06:59:10.927Z,6.53
2017-10-23T07:01:37.376Z,4.37
2017-10-23T07:04:04.690Z,4.30
2017-10-23T07:06:31.259Z,4.03
2017-10-23T07:08:57.706Z,2.53
2017-10-23T07:11:24.151Z,2.20
2017-10-23T07:13:50.616Z,1.30
2017-10-23T07:16:17.824Z,2.10
2017-10-23T07:18:44.276Z,2.10
2017-10-23T07:21:10.756Z,1.90
2017-10-23T07:23:37.225Z,2.47
2017-10-23T07:26:03.665Z,2.30
2017-10-23T07:28:30.167Z,2.10
2017-10-23T07:30:56.600Z,2.07
2017-10-23T07:33:23.046Z,2.23
2017-10-23T07:35:49.585Z,0.80
2017-10-23T07:38:16.035Z,1.20
2017-10-23T07:40:42.475Z,0.60
2017-10-23T07:43:08.905Z,1.30
2017-10-23T07:45:35.340Z,0.77
2017-10-23T07:48:01.776Z,1.13
2017-10-23T07:50:28.991Z,0.80
2017-10-23T07:52:55.457Z,1.20
2017-10-23T07:55:21.912Z,1.70
2017-10-23T07:57:49.047Z,0.83
2017-10-23T08:00:15.515Z,0.80
2017-10-23T08:02:41.943Z,0.80
2017-10-23T08:05:09.532Z,1.33
2017-10-23T08:07:35.948Z,1.20
2017-10-23T08:10:02.341Z,0.90
2017-10-23T08:12:28.787Z,1.10
2017-10-23T08:14:55.960Z,0.83
2017-10-23T08:17:22.506Z,1.00
2017-10-23T08:19:50.999Z,0.73
2017-10-23T08:22:20.050Z,1.03
2017-10-23T08:24:49.208Z,0.80
2017-10-23T08:27:18.626Z,0.70
2017-10-23T08:29:47.643Z,0.90
2017-10-23T08:32:15.753Z,1.00
2017-10-23T08:34:44.245Z,0.40
2017-10-23T08:37:11.320Z,0.70
2017-10-23T08:39:37.740Z,0.77
2017-10-23T08:42:04.180Z,0.60
2017-10-23T08:44:30.588Z,0.67
2017-10-23T08:46:57.039Z,0.80
2017-10-23T08:49:23.468Z,0.57
2017-10-23T08:51:49.911Z,0.80
2017-10-23T08:54:16.380Z,0.83
2017-10-23T08:56:43.544Z,0.60
2017-10-23T08:59:09.996Z,0.40
2017-10-23T09:01:36.424Z,0.50
2017-10-23T09:04:02.832Z,0.60
2017-10-23T09:06:29.259Z,1.00
2017-10-23T09:08:56.404Z,0.50
2017-10-23T09:11:23.695Z,0.50
2017-10-23T09:13:50.140Z,0.80
2017-10-23T09:16:16.614Z,0.70
2017-10-23T09:18:43.062Z,0.60
2017-10-23T09:21:10.259Z,0.63
2017-10-23T09:23:36.702Z,0.40
2017-10-23T09:26:03.096Z,0.40
2017-10-23T09:28:30.339Z,0.57
2017-10-23T09:30:57.463Z,1.10
2017-10-23T09:33:23.904Z,0.60
2017-10-23T09:35:51.122Z,0.60
2017-10-23T09:38:17.568Z,0.90
2017-10-23T09:40:43.985Z,0.50
2017-10-23T09:43:10.421Z,0.70
2017-10-23T09:45:36.844Z,0.53
2017-10-23T09:48:03.252Z,0.73
2017-10-23T09:50:29.685Z,0.57
2017-10-23T09:52:56.096Z,0.53
2017-10-23T09:55:23.241Z,0.70
2017-10-23T09:57:49.623Z,0.60
2017-10-23T10:00:16.092Z,0.83
2017-10-23T10:02:42.513Z,0.70
2017-10-23T10:05:08.951Z,0.77
2017-10-23T10:07:35.352Z,0.40
2017-10-23T10:10:01.776Z,0.80
2017-10-23T10:12:28.183Z,0.70
2017-10-23T10:14:55.327Z,0.50
2017-10-23T10:17:22.487Z,0.50
2017-10-23T10:19:49.672Z,0.50
2017-10-23T10:22:16.053Z,0.50
2017-10-23T10:24:42.475Z,0.50
2017-10-23T10:27:08.926Z,0.53
2017-10-23T10:29:36.101Z,0.50
2017-10-23T10:32:02.524Z,0.60
2017-10-23T10:34:28.932Z,0.80
2017-10-23T10:36:55.328Z,1.20
2017-10-23T10:39:21.752Z,0.50
2017-10-23T10:41:48.152Z,0.60
2017-10-23T10:44:14.549Z,0.70
2017-10-23T10:46:40.975Z,0.70
2017-10-23T10:49:07.376Z,0.70
2017-10-23T10:51:33.812Z,0.90
2017-10-23T10:54:00.208Z,0.60
2017-10-23T10:56:27.447Z,0.57
2017-10-23T10:58:54.623Z,1.00
2017-10-23T11:01:21.056Z,0.70
2017-10-23T11:03:47.493Z,0.70
2017-10-23T11:06:13.891Z,0.93
2017-10-23T11:08:40.305Z,0.90
2017-10-23T11:11:07.323Z,1.00
2017-10-23T11:13:33.731Z,0.60
2017-10-23T11:16:00.203Z,1.20
2017-10-23T11:18:26.660Z,1.20
2017-10-23T11:20:53.108Z,0.90
2017-10-23T11:23:19.532Z,0.70
2017-10-23T11:25:46.020Z,0.63
2017-10-23T11:28:12.447Z,1.17
2017-10-23T11:30:38.882Z,0.53
2017-10-23T11:33:05.588Z,0.93
2017-10-23T11:35:32.743Z,0.93
2017-10-23T11:37:59.903Z,0.60
2017-10-23T11:40:26.294Z,0.87
2017-10-23T11:42:52.738Z,0.90
2017-10-23T11:45:19.876Z,0.90
2017-10-23T11:47:46.301Z,0.83
2017-10-23T11:50:12.740Z,1.33
2017-10-23T11:52:39.131Z,0.73
2017-10-23T11:55:05.547Z,0.50
2017-10-23T11:57:32.692Z,0.73
2017-10-23T11:59:59.184Z,0.47
2017-10-23T12:02:25.625Z,0.50
2017-10-23T12:04:52.028Z,0.83
2017-10-23T12:07:18.458Z,1.10
2017-10-23T12:09:44.928Z,0.70
2017-10-23T12:12:11.334Z,1.10
2017-10-23T12:14:37.757Z,0.70
2017-10-23T12:17:04.284Z,1.20
2017-10-23T12:19:30.752Z,0.87
2017-10-23T12:21:57.672Z,0.87
2017-10-23T12:24:24.102Z,0.53
2017-10-23T12:26:50.569Z,0.90
2017-10-23T12:29:16.994Z,0.80
2017-10-23T12:31:43.413Z,0.90
2017-10-23T12:34:09.859Z,0.63
2017-10-23T12:36:36.300Z,0.70
2017-10-23T12:39:02.813Z,0.57
2017-10-23T12:41:29.239Z,0.50
2017-10-23T12:43:55.672Z,4.53
2017-10-23T12:46:22.092Z,3.30
2017-10-23T12:48:48.531Z,1.20
2017-10-23T12:51:14.993Z,0.70
2017-10-23T12:53:41.391Z,1.70
2017-10-23T12:56:07.811Z,1.00
2017-10-23T12:58:34.237Z,2.57
2017-10-23T13:01:00.656Z,1.60
2017-10-23T13:03:27.831Z,0.73
2017-10-23T13:05:54.259Z,3.53
2017-10-23T13:08:20.704Z,1.20
2017-10-23T13:10:47.123Z,3.00
2017-10-23T13:13:13.560Z,2.27
2017-10-23T13:15:40.041Z,2.53
2017-10-23T13:18:06.535Z,1.83
2017-10-23T13:20:32.948Z,1.60
2017-10-23T13:23:00.108Z,1.00
2017-10-23T13:25:26.542Z,1.50
2017-10-23T13:27:53.735Z,1.10
2017-10-23T13:30:20.188Z,1.23
2017-10-23T13:32:46.594Z,0.80
2017-10-23T13:35:12.988Z,0.83
2017-10-23T13:37:39.427Z,0.90
2017-10-23T13:40:05.841Z,0.80
2017-10-23T13:42:32.992Z,1.00
2017-10-23T13:45:00.147Z,0.70
2017-10-23T13:47:27.305Z,0.90
2017-10-23T13:49:53.724Z,0.80
2017-10-23T13:52:20.887Z,0.70
2017-10-23T13:54:47.287Z,0.80
2017-10-23T13:57:13.686Z,0.70
2017-10-23T13:59:40.112Z,0.67
2017-10-23T14:02:06.503Z,0.90
2017-10-23T14:04:32.971Z,0.80
2017-10-23T14:06:59.375Z,1.73
2017-10-23T14:09:26.545Z,3.30
2017-10-23T14:11:52.968Z,0.70
2017-10-23T14:14:19.403Z,0.80
2017-10-23T14:16:45.927Z,1.23
2017-10-23T14:19:13.164Z,0.90
2017-10-23T14:21:40.352Z,1.30
2017-10-23T14:24:06.928Z,1.30
2017-10-23T14:26:33.429Z,0.90
2017-10-23T14:28:59.952Z,0.93
2017-10-23T14:34:40.733Z,2.20
2017-10-23T14:37:08.308Z,2.17
2017-10-23T14:39:35.388Z,1.70
2017-10-23T14:42:02.755Z,0.83
2017-10-23T14:44:29.236Z,1.23
2017-10-23T14:46:58.516Z,0.90
2017-10-23T14:49:26.885Z,0.73
2017-10-23T14:51:55.007Z,1.30
2017-10-23T14:54:24.667Z,1.10
2017-10-23T14:56:51.820Z,0.90
2017-10-23T14:59:19.014Z,1.00
2017-10-23T15:02:02.142Z,2.00
2017-10-23T15:04:29.838Z,2.47
2017-10-23T15:06:57.350Z,1.83
2017-10-23T15:09:23.837Z,1.50
2017-10-23T15:11:51.860Z,1.93
2017-10-23T15:14:19.104Z,1.27
2017-10-23T15:16:45.818Z,0.80
2017-10-23T15:19:13.998Z,4.73
2017-10-23T15:21:41.827Z,1.77
2017-10-23T15:24:08.295Z,2.33
2017-10-23T15:27:03.424Z,3.77
2017-10-23T15:29:33.032Z,1.47
2017-10-23T15:31:59.784Z,1.90
2017-10-23T15:34:28.604Z,2.30
2017-10-23T15:36:55.897Z,1.60
2017-10-23T15:39:22.444Z,1.40
2017-10-23T15:41:50.960Z,1.50
2017-10-23T15:44:17.456Z,2.17
2017-10-23T15:46:44.075Z,2.13
2017-10-23T15:52:13.102Z,1.67
2017-10-23T15:54:46.145Z,2.17
2017-10-23T15:57:12.584Z,1.63
2017-10-23T15:59:40.193Z,1.37
2017-10-23T16:02:10.226Z,1.80
2017-10-23T16:04:43.156Z,1.83
2017-10-23T16:07:10.612Z,1.37
2017-10-23T16:09:37.079Z,1.30
2017-10-23T16:12:11.589Z,1.20
2017-10-23T16:14:43.556Z,1.57
2017-10-23T16:17:12.236Z,1.13
2017-10-23T16:19:39.744Z,1.30
2017-10-23T16:22:08.082Z,1.10
2017-10-23T16:24:34.511Z,2.20
2017-10-23T16:27:00.953Z,1.87
2017-10-23T16:29:27.424Z,0.80
2017-10-23T16:31:53.833Z,1.30
2017-10-23T16:34:20.279Z,0.60
2017-10-23T16:36:46.694Z,0.90
2017-10-23T16:39:13.135Z,0.60
2017-10-23T16:41:39.544Z,0.60
2017-10-23T16:44:06.791Z,0.70
2017-10-23T16:46:34.081Z,0.80
2017-10-23T16:49:00.560Z,0.80
2017-10-23T16:51:26.994Z,0.70
2017-10-23T16:53:53.436Z,0.60
2017-10-23T16:56:19.865Z,0.93
2017-10-23T16:58:46.994Z,0.70
2017-10-23T17:01:13.432Z,0.90
2017-10-23T17:03:39.856Z,0.87
2017-10-23T17:06:06.268Z,0.90
2017-10-23T17:08:32.655Z,0.90
2017-10-23T17:10:59.796Z,0.87
2017-10-23T17:13:26.208Z,0.80
2017-10-23T17:15:52.640Z,0.70
2017-10-23T17:18:19.052Z,0.60
2017-10-23T17:20:45.486Z,0.60
2017-10-23T17:23:11.885Z,0.80
2017-10-23T17:25:38.321Z,1.00
2017-10-23T17:28:04.876Z,0.93
2017-10-23T17:30:31.303Z,0.73
2017-10-23T17:32:57.723Z,0.53
2017-10-23T17:35:24.189Z,0.70
2017-10-23T17:37:50.579Z,0.57
2017-10-23T17:40:17.985Z,1.07
2017-10-23T17:42:45.706Z,0.90
2017-10-23T17:45:12.116Z,1.00
2017-10-23T17:47:39.280Z,1.00
2017-10-23T17:50:06.449Z,0.93
2017-10-23T17:52:32.876Z,0.70
2017-10-23T17:54:59.366Z,0.77
2017-10-23T17:57:26.674Z,0.90
2017-10-23T17:59:53.070Z,0.90
2017-10-23T18:02:20.263Z,0.97
2017-10-23T18:04:46.675Z,0.90
2017-10-23T18:07:13.451Z,0.83
2017-10-23T18:09:39.975Z,0.80
2017-10-23T18:12:06.407Z,0.93
2017-10-23T18:14:32.948Z,1.40
2017-10-23T18:16:59.461Z,0.90
2017-10-23T18:19:25.847Z,1.03
2017-10-23T18:21:52.281Z,0.70
2017-10-23T18:24:18.699Z,1.03
2017-10-23T18:26:45.203Z,1.00
2017-10-23T18:29:11.688Z,0.70
2017-10-23T18:31:38.100Z,0.90
2017-10-23T18:34:04.517Z,1.20
2017-10-23T18:36:30.940Z,0.70
2017-10-23T18:38:57.358Z,1.03
2017-10-23T18:41:23.764Z,0.80
2017-10-23T18:43:51.029Z,0.87
2017-10-23T18:46:17.433Z,0.70
2017-10-23T18:48:43.836Z,0.90
2017-10-23T18:51:10.279Z,0.80
2017-10-23T18:53:36.680Z,0.73
2017-10-23T18:56:03.092Z,0.90
2017-10-23T18:58:30.227Z,0.40
2017-10-23T19:00:57.391Z,1.10
2017-10-23T19:03:24.552Z,0.70
2017-10-23T19:05:51.010Z,0.67
2017-10-23T19:08:17.399Z,1.00
2017-10-23T19:10:44.542Z,0.90
2017-10-23T19:13:11.712Z,0.60
2017-10-23T19:15:38.911Z,0.53
2017-10-23T19:18:05.306Z,1.00
2017-10-23T19:20:31.868Z,0.77
2017-10-23T19:22:58.299Z,0.70
2017-10-23T19:25:24.812Z,0.63
2017-10-23T19:27:51.234Z,0.70
2017-10-23T19:30:17.687Z,0.60
2017-10-23T19:32:44.079Z,0.50
2017-10-23T19:35:11.232Z,0.53
2017-10-23T19:37:38.385Z,0.73
2017-10-23T19:40:05.572Z,0.50
2017-10-23T19:42:31.966Z,0.60
2017-10-23T19:44:59.136Z,0.60
2017-10-23T19:47:25.741Z,0.50
2017-10-23T19:49:52.211Z,0.77
2017-10-23T19:52:18.632Z,0.60
2017-10-23T19:54:45.044Z,0.50
2017-10-23T19:57:12.187Z,0.50
2017-10-23T19:59:39.350Z,0.50
2017-10-23T20:02:06.904Z,0.70
2017-10-23T20:04:33.464Z,0.60
2017-10-23T20:06:59.883Z,0.50
2017-10-23T20:09:27.019Z,0.40
2017-10-23T20:11:53.423Z,0.53
2017-10-23T20:14:19.806Z,0.60
2017-10-23T20:16:46.232Z,0.50
2017-10-23T20:19:13.379Z,0.50
2017-10-23T20:21:40.563Z,0.53
2017-10-23T20:24:06.978Z,0.50
2017-10-23T20:26:33.498Z,0.60
2017-10-23T20:29:00.801Z,0.87
2017-10-23T20:31:27.197Z,0.57
2017-10-23T20:33:53.708Z,0.70
2017-10-23T20:36:20.108Z,0.53
2017-10-23T20:38:46.512Z,0.50
2017-10-23T20:41:12.948Z,0.60
2017-10-23T20:43:39.327Z,0.60
2017-10-23T20:46:05.790Z,0.40
2017-10-23T20:48:32.252Z,0.40
2017-10-23T20:50:58.676Z,0.60
2017-10-23T20:53:25.068Z,0.40
2017-10-23T20:55:51.490Z,0.50
2017-10-23T20:58:17.907Z,0.40
2017-10-23T21:00:44.299Z,0.67
2017-10-23T21:03:10.756Z,0.80
2017-10-23T21:05:37.175Z,0.50
2017-10-23T21:08:03.596Z,0.67
2017-10-23T21:10:30.045Z,0.70
2017-10-23T21:12:56.512Z,0.60
2017-10-23T21:15:22.950Z,0.50
2017-10-23T21:17:49.379Z,0.50
2017-10-23T21:20:15.767Z,0.63
2017-10-23T21:22:42.169Z,0.70
2017-10-23T21:25:09.359Z,0.60
2017-10-23T21:27:35.795Z,1.20
2017-10-23T21:30:02.223Z,1.23
2017-10-23T21:32:29.559Z,0.70
2017-10-23T21:34:56.027Z,0.80
2017-10-23T21:37:22.451Z,0.40
2017-10-23T21:39:48.904Z,0.60
2017-10-23T21:42:15.319Z,0.60
2017-10-23T21:44:41.723Z,0.50
2017-10-23T21:47:10.146Z,0.60
2017-10-23T21:49:36.586Z,0.70
2017-10-23T21:52:03.027Z,0.40
2017-10-23T21:54:29.431Z,0.60
2017-10-23T21:56:55.899Z,0.43
2017-10-23T21:59:22.371Z,0.60
2017-10-23T22:01:48.831Z,0.50
2017-10-23T22:04:15.231Z,0.37
2017-10-23T22:06:41.660Z,0.53
2017-10-23T22:09:08.790Z,0.80
2017-10-23T22:11:35.214Z,0.43
2017-10-23T22:14:01.608Z,0.60
2017-10-23T22:16:28.014Z,0.50
2017-10-23T22:18:54.460Z,0.50
2017-10-23T22:21:20.835Z,0.50
2017-10-23T22:23:47.244Z,0.53
2017-10-23T22:26:13.675Z,0.50
2017-10-23T22:28:40.079Z,0.40
2017-10-23T22:31:06.516Z,0.80
2017-10-23T22:33:32.907Z,0.47
2017-10-23T22:35:59.343Z,0.50
2017-10-23T22:38:25.728Z,0.60
2017-10-23T22:40:52.132Z,0.50
2017-10-23T22:43:19.259Z,0.50
2017-10-23T22:45:45.772Z,0.77
2017-10-23T22:48:12.235Z,0.60
2017-10-23T22:50:39.412Z,0.60
2017-10-23T22:53:05.871Z,0.50
2017-10-23T22:55:32.289Z,0.60
2017-10-23T22:57:58.727Z,0.60
2017-10-23T23:00:25.167Z,0.60
2017-10-23T23:02:51.599Z,0.60
2017-10-23T23:05:18.031Z,0.60
2017-10-23T23:07:44.432Z,0.50
2017-10-23T23:10:11.614Z,0.50
2017-10-23T23:12:38.078Z,0.70
2017-10-23T23:15:04.490Z,0.93
2017-10-23T23:17:30.971Z,0.70
2017-10-23T23:19:58.099Z,0.60
2017-10-23T23:22:24.603Z,0.60
2017-10-23T23:24:51.081Z,0.80
2017-10-23T23:27:17.552Z,0.73
2017-10-23T23:29:44.011Z,0.77
2017-10-23T23:32:10.493Z,0.50
2017-10-23T23:34:37.688Z,0.77
2017-10-23T23:37:04.084Z,0.53
2017-10-23T23:39:31.251Z,0.53
2017-10-23T23:41:57.644Z,0.60
2017-10-23T23:44:24.061Z,0.73
2017-10-23T23:46:50.512Z,0.50
2017-10-23T23:49:16.944Z,0.70
2017-10-23T23:51:44.135Z,0.73
2017-10-23T23:54:10.572Z,0.70
2017-10-23T23:56:37.051Z,0.70
2017-10-23T23:59:03.437Z,0.60
